Magnate — H9ZN — position and weather

sailwx.info

Track history (hours):
 
Tides and Currents Weather Stations Pressure Air Temp Water Temp Dewpoint Dewpoint Depression Visibility Wind Speed Wind Dir Waves Ship Positions

Magnate

Last reported at 2015-May-12 05:33 UTC. Time now 2015-May-27 03:53 UTC.
Position S 31°50' E 016°25'.
Warning: this ship's position is 14 days out of date.

Length 140 m; draft 7.3 m.

Type: Cargo ship. MMSI: 357055000.

Date/timePositionNaut miles runAvg speedWind from/ knotsBaromVisibWave heightAir tempDewpointWater temp
2015-May-12 05:33S 31°50' E 016°25'8612.0
2015-May-11 22:23S 33°06' E 017°13'9912.5
2015-May-11 14:30S 34°26' E 018°24'15611.1
2015-May-11 00:24S 34°34' E 021°33'4511.0
2015-May-10 20:16S 34°25' E 022°28'1011.6
2015-May-10 19:25S 34°24' E 022°39'49210.7
2015-May-08 21:32S 30°12' E 030°59'1111.0
2015-May-08 20:33S 30°01' E 031°03'1010.4
2015-May-08 19:33S 29°51' E 031°05'3 2.4
2015-May-08 18:25S 29°52' E 031°02'0 0.0
2015-May-08 17:25S 29°52' E 031°02'0 0.0
2015-May-08 14:13S 29°52' E 031°02'0 0.0
2015-May-08 13:31S 29°52' E 031°02'0 0.0
2015-May-08 12:25S 29°52' E 031°02'0 0.0
2015-May-08 08:30S 29°52' E 031°02'3 3.4
2015-May-08 07:33S 29°50' E 031°05'2 1.8
2015-May-08 06:33S 29°49' E 031°07'0 0.1
2015-May-08 05:32S 29°49' E 031°07'1 0.6
2015-May-08 04:34S 29°49' E 031°08'5 4.6
2015-May-08 03:33S 29°50' E 031°13'1110.4
2015-May-08 02:32S 29°49' E 031°25'7 7.1
2015-May-08 01:34S 29°46' E 031°32'4 3.9
2015-May-08 00:33S 29°45' E 031°37'4 4.5
2015-May-07 23:34S 29°49' E 031°38'7 7.4
2015-May-07 22:33S 29°52' E 031°46'  
Track history (hours):
 
Tides and Currents Weather Stations Pressure Air Temp Water Temp Dewpoint Dewpoint Depression Visibility Wind Speed Wind Dir Waves Ship Positions

Magnate

Last reported at 2015-May-12 05:33 UTC. Time now 2015-May-27 03:53 UTC.
Position S 31°50' E 016°25'.
Warning: this ship's position is 14 days out of date.

Length 140 m; draft 7.3 m.

Type: Cargo ship. MMSI: 357055000.

Date/timePositionNaut miles runAvg speedWind from/ knotsBaromVisibWave heightAir tempDewpointWater temp
2015-May-12 05:33S 31°50' E 016°25'8612.0
2015-May-11 22:23S 33°06' E 017°13'9912.5
2015-May-11 14:30S 34°26' E 018°24'15611.1
2015-May-11 00:24S 34°34' E 021°33'4511.0
2015-May-10 20:16S 34°25' E 022°28'1011.6
2015-May-10 19:25S 34°24' E 022°39'49210.7
2015-May-08 21:32S 30°12' E 030°59'1111.0
2015-May-08 20:33S 30°01' E 031°03'1010.4
2015-May-08 19:33S 29°51' E 031°05'3 2.4
2015-May-08 18:25S 29°52' E 031°02'0 0.0
2015-May-08 17:25S 29°52' E 031°02'0 0.0
2015-May-08 14:13S 29°52' E 031°02'0 0.0
2015-May-08 13:31S 29°52' E 031°02'0 0.0
2015-May-08 12:25S 29°52' E 031°02'0 0.0
2015-May-08 08:30S 29°52' E 031°02'3 3.4
2015-May-08 07:33S 29°50' E 031°05'2 1.8
2015-May-08 06:33S 29°49' E 031°07'0 0.1
2015-May-08 05:32S 29°49' E 031°07'1 0.6
2015-May-08 04:34S 29°49' E 031°08'5 4.6
2015-May-08 03:33S 29°50' E 031°13'1110.4
2015-May-08 02:32S 29°49' E 031°25'7 7.1
2015-May-08 01:34S 29°46' E 031°32'4 3.9
2015-May-08 00:33S 29°45' E 031°37'4 4.5
2015-May-07 23:34S 29°49' E 031°38'7 7.4
2015-May-07 22:33S 29°52' E 031°46'  

Dump ship's entire track history